sensor_id;sensor_type;location;lat;lon;timestamp;temperature;humidity
48988;DHT22;34799;51.440;-2.534;2023-07-29T00:02:03;17.30;99.90
48988;DHT22;34799;51.440;-2.534;2023-07-29T00:04:31;17.30;99.90
48988;DHT22;34799;51.440;-2.534;2023-07-29T00:06:58;17.00;99.90
48988;DHT22;34799;51.440;-2.534;2023-07-29T00:09:25;17.30;99.90
48988;DHT22;34799;51.440;-2.534;2023-07-29T00:11:52;17.30;99.90
48988;DHT22;34799;51.440;-2.534;2023-07-29T00:14:20;17.30;99.90
48988;DHT22;34799;51.440;-2.534;2023-07-29T00:16:47;17.20;99.90
48988;DHT22;34799;51.440;-2.534;2023-07-29T00:19:14;17.10;99.90
48988;DHT22;34799;51.440;-2.534;2023-07-29T00:21:41;17.10;99.90
48988;DHT22;34799;51.440;-2.534;2023-07-29T00:24:08;17.10;99.90
48988;DHT22;34799;51.440;-2.534;2023-07-29T00:26:35;17.20;99.90
48988;DHT22;34799;51.440;-2.534;2023-07-29T00:29:03;17.20;99.90
48988;DHT22;34799;51.440;-2.534;2023-07-29T00:31:31;17.10;99.90
48988;DHT22;34799;51.440;-2.534;2023-07-29T00:33:58;17.10;99.90
48988;DHT22;34799;51.440;-2.534;2023-07-29T00:36:25;17.10;99.90
48988;DHT22;34799;51.440;-2.534;2023-07-29T00:38:52;17.10;99.90
48988;DHT22;34799;51.440;-2.534;2023-07-29T00:41:22;17.10;99.90
48988;DHT22;34799;51.440;-2.534;2023-07-29T00:43:50;17.20;99.90
48988;DHT22;34799;51.440;-2.534;2023-07-29T00:46:17;17.20;99.90
48988;DHT22;34799;51.440;-2.534;2023-07-29T00:48:45;17.30;99.90
48988;DHT22;34799;51.440;-2.534;2023-07-29T00:51:12;17.20;99.90
48988;DHT22;34799;51.440;-2.534;2023-07-29T00:53:39;17.20;99.90
48988;DHT22;34799;51.440;-2.534;2023-07-29T00:56:06;17.20;99.90
48988;DHT22;34799;51.440;-2.534;2023-07-29T00:58:34;17.20;99.90
48988;DHT22;34799;51.440;-2.534;2023-07-29T01:01:01;17.30;99.90
48988;DHT22;34799;51.440;-2.534;2023-07-29T01:03:28;17.20;99.90
48988;DHT22;34799;51.440;-2.534;2023-07-29T01:09:01;17.20;99.90
48988;DHT22;34799;51.440;-2.534;2023-07-29T01:11:44;18.70;99.90
48988;DHT22;34799;51.440;-2.534;2023-07-29T01:16:42;17.20;99.90
48988;DHT22;34799;51.440;-2.534;2023-07-29T01:21:59;17.20;99.90
48988;DHT22;34799;51.440;-2.534;2023-07-29T01:24:29;17.10;99.90
48988;DHT22;34799;51.440;-2.534;2023-07-29T01:26:56;17.10;99.90
48988;DHT22;34799;51.440;-2.534;2023-07-29T01:29:23;17.20;99.90
48988;DHT22;34799;51.440;-2.534;2023-07-29T01:31:53;17.20;99.90
48988;DHT22;34799;51.440;-2.534;2023-07-29T01:34:29;17.20;99.90
48988;DHT22;34799;51.440;-2.534;2023-07-29T01:37:01;17.20;99.90
48988;DHT22;34799;51.440;-2.534;2023-07-29T01:39:32;17.10;99.90
48988;DHT22;34799;51.440;-2.534;2023-07-29T01:42:02;17.20;99.90
48988;DHT22;34799;51.440;-2.534;2023-07-29T01:44:29;17.10;99.90
48988;DHT22;34799;51.440;-2.534;2023-07-29T01:46:56;17.10;99.90
48988;DHT22;34799;51.440;-2.534;2023-07-29T01:49:23;17.20;99.90
48988;DHT22;34799;51.440;-2.534;2023-07-29T01:51:51;17.20;99.90
48988;DHT22;34799;51.440;-2.534;2023-07-29T01:54:18;17.10;99.90
48988;DHT22;34799;51.440;-2.534;2023-07-29T01:56:45;17.20;99.90
48988;DHT22;34799;51.440;-2.534;2023-07-29T01:59:12;17.10;99.90
48988;DHT22;34799;51.440;-2.534;2023-07-29T02:01:42;17.20;99.90
48988;DHT22;34799;51.440;-2.534;2023-07-29T02:04:11;17.10;99.90
48988;DHT22;34799;51.440;-2.534;2023-07-29T02:06:38;17.10;99.90
48988;DHT22;34799;51.440;-2.534;2023-07-29T02:09:06;17.00;99.90
48988;DHT22;34799;51.440;-2.534;2023-07-29T02:11:33;17.10;99.90
48988;DHT22;34799;51.440;-2.534;2023-07-29T02:14:00;17.00;99.90
48988;DHT22;34799;51.440;-2.534;2023-07-29T02:16:29;17.00;99.90
48988;DHT22;34799;51.440;-2.534;2023-07-29T02:18:59;17.00;99.90
48988;DHT22;34799;51.440;-2.534;2023-07-29T02:21:31;17.00;99.90
48988;DHT22;34799;51.440;-2.534;2023-07-29T02:24:01;17.00;99.90
48988;DHT22;34799;51.440;-2.534;2023-07-29T02:26:29;16.90;99.90
48988;DHT22;34799;51.440;-2.534;2023-07-29T02:29:02;17.00;99.90
48988;DHT22;34799;51.440;-2.534;2023-07-29T02:31:37;17.00;99.90
48988;DHT22;34799;51.440;-2.534;2023-07-29T02:34:06;16.90;99.90
48988;DHT22;34799;51.440;-2.534;2023-07-29T02:36:44;16.90;99.90
48988;DHT22;34799;51.440;-2.534;2023-07-29T02:39:13;16.90;99.90
48988;DHT22;34799;51.440;-2.534;2023-07-29T02:41:45;16.90;99.90
48988;DHT22;34799;51.440;-2.534;2023-07-29T02:44:15;17.00;99.90
48988;DHT22;34799;51.440;-2.534;2023-07-29T02:46:44;16.30;99.90
48988;DHT22;34799;51.440;-2.534;2023-07-29T02:49:15;17.20;99.90
48988;DHT22;34799;51.440;-2.534;2023-07-29T02:51:44;17.00;99.90
48988;DHT22;34799;51.440;-2.534;2023-07-29T02:54:13;17.20;99.90
48988;DHT22;34799;51.440;-2.534;2023-07-29T02:56:45;16.80;99.90
48988;DHT22;34799;51.440;-2.534;2023-07-29T02:59:15;16.90;99.90
48988;DHT22;34799;51.440;-2.534;2023-07-29T03:01:47;16.90;99.90
48988;DHT22;34799;51.440;-2.534;2023-07-29T03:04:18;16.90;99.90
48988;DHT22;34799;51.440;-2.534;2023-07-29T03:06:48;14.90;99.90
48988;DHT22;34799;51.440;-2.534;2023-07-29T03:09:19;17.20;99.90
48988;DHT22;34799;51.440;-2.534;2023-07-29T03:11:47;16.70;99.90
48988;DHT22;34799;51.440;-2.534;2023-07-29T03:14:29;16.90;99.90
48988;DHT22;34799;51.440;-2.534;2023-07-29T03:17:03;16.70;99.90
48988;DHT22;34799;51.440;-2.534;2023-07-29T03:19:43;16.70;99.90
48988;DHT22;34799;51.440;-2.534;2023-07-29T03:22:17;16.60;99.90
48988;DHT22;34799;51.440;-2.534;2023-07-29T03:24:47;16.80;99.90
48988;DHT22;34799;51.440;-2.534;2023-07-29T03:27:16;16.70;99.90
48988;DHT22;34799;51.440;-2.534;2023-07-29T03:29:55;16.70;99.90
48988;DHT22;34799;51.440;-2.534;2023-07-29T03:32:25;16.80;99.90
48988;DHT22;34799;51.440;-2.534;2023-07-29T03:35:06;16.70;99.90
48988;DHT22;34799;51.440;-2.534;2023-07-29T03:37:36;16.80;99.90
48988;DHT22;34799;51.440;-2.534;2023-07-29T03:40:10;16.70;99.90
48988;DHT22;34799;51.440;-2.534;2023-07-29T03:42:43;16.80;99.90
48988;DHT22;34799;51.440;-2.534;2023-07-29T03:45:15;17.60;99.90
48988;DHT22;34799;51.440;-2.534;2023-07-29T03:47:51;16.60;99.90
48988;DHT22;34799;51.440;-2.534;2023-07-29T03:50:19;16.70;99.90
48988;DHT22;34799;51.440;-2.534;2023-07-29T03:56:58;16.80;99.90
48988;DHT22;34799;51.440;-2.534;2023-07-29T03:59:36;16.70;99.90
48988;DHT22;34799;51.440;-2.534;2023-07-29T04:02:06;16.80;99.90
48988;DHT22;34799;51.440;-2.534;2023-07-29T04:08:43;15.90;99.90
48988;DHT22;34799;51.440;-2.534;2023-07-29T04:11:47;16.70;99.90
48988;DHT22;34799;51.440;-2.534;2023-07-29T04:14:14;16.80;99.90
48988;DHT22;34799;51.440;-2.534;2023-07-29T04:16:42;16.80;99.90
48988;DHT22;34799;51.440;-2.534;2023-07-29T04:19:09;16.80;99.90
48988;DHT22;34799;51.440;-2.534;2023-07-29T04:21:37;16.70;99.90
48988;DHT22;34799;51.440;-2.534;2023-07-29T04:24:04;16.70;99.90
48988;DHT22;34799;51.440;-2.534;2023-07-29T04:26:31;16.70;99.90
48988;DHT22;34799;51.440;-2.534;2023-07-29T04:28:58;16.70;99.90
48988;DHT22;34799;51.440;-2.534;2023-07-29T04:31:25;16.70;99.90
48988;DHT22;34799;51.440;-2.534;2023-07-29T04:33:52;16.80;99.90
48988;DHT22;34799;51.440;-2.534;2023-07-29T04:36:19;16.80;99.90
48988;DHT22;34799;51.440;-2.534;2023-07-29T04:38:46;16.70;99.90
48988;DHT22;34799;51.440;-2.534;2023-07-29T04:41:13;16.70;99.90
48988;DHT22;34799;51.440;-2.534;2023-07-29T04:43:40;16.70;99.90
48988;DHT22;34799;51.440;-2.534;2023-07-29T04:46:08;16.70;99.90
48988;DHT22;34799;51.440;-2.534;2023-07-29T04:48:35;16.70;99.90
48988;DHT22;34799;51.440;-2.534;2023-07-29T04:51:02;16.70;99.90
48988;DHT22;34799;51.440;-2.534;2023-07-29T04:53:29;16.50;99.90
48988;DHT22;34799;51.440;-2.534;2023-07-29T04:55:57;16.40;99.90
48988;DHT22;34799;51.440;-2.534;2023-07-29T04:58:24;16.40;99.90
48988;DHT22;34799;51.440;-2.534;2023-07-29T05:00:51;16.30;99.90
48988;DHT22;34799;51.440;-2.534;2023-07-29T05:03:18;16.20;99.90
48988;DHT22;34799;51.440;-2.534;2023-07-29T05:05:45;16.20;99.90
48988;DHT22;34799;51.440;-2.534;2023-07-29T05:08:12;16.30;99.90
48988;DHT22;34799;51.440;-2.534;2023-07-29T05:10:39;16.30;99.90
48988;DHT22;34799;51.440;-2.534;2023-07-29T05:13:07;16.30;99.90
48988;DHT22;34799;51.440;-2.534;2023-07-29T05:15:34;16.30;99.90
48988;DHT22;34799;51.440;-2.534;2023-07-29T05:18:01;16.40;99.90
48988;DHT22;34799;51.440;-2.534;2023-07-29T05:20:28;16.40;99.90
48988;DHT22;34799;51.440;-2.534;2023-07-29T05:22:56;16.40;99.90
48988;DHT22;34799;51.440;-2.534;2023-07-29T05:25:23;16.50;99.90
48988;DHT22;34799;51.440;-2.534;2023-07-29T05:27:50;16.50;99.90
48988;DHT22;34799;51.440;-2.534;2023-07-29T05:30:18;16.50;99.90
48988;DHT22;34799;51.440;-2.534;2023-07-29T05:32:45;16.50;99.90
48988;DHT22;34799;51.440;-2.534;2023-07-29T05:35:12;16.50;99.90
48988;DHT22;34799;51.440;-2.534;2023-07-29T05:37:40;16.60;99.90
48988;DHT22;34799;51.440;-2.534;2023-07-29T05:40:08;16.60;99.90
48988;DHT22;34799;51.440;-2.534;2023-07-29T05:42:36;16.70;99.90
48988;DHT22;34799;51.440;-2.534;2023-07-29T05:45:03;16.70;99.90
48988;DHT22;34799;51.440;-2.534;2023-07-29T05:47:30;16.80;99.90
48988;DHT22;34799;51.440;-2.534;2023-07-29T05:49:57;16.90;99.90
48988;DHT22;34799;51.440;-2.534;2023-07-29T05:52:25;16.90;99.90
48988;DHT22;34799;51.440;-2.534;2023-07-29T05:54:52;16.90;99.90
48988;DHT22;34799;51.440;-2.534;2023-07-29T05:57:19;16.90;99.90
48988;DHT22;34799;51.440;-2.534;2023-07-29T05:59:46;16.90;99.90
48988;DHT22;34799;51.440;-2.534;2023-07-29T06:02:13;16.80;99.90
48988;DHT22;34799;51.440;-2.534;2023-07-29T06:04:40;16.80;99.90
48988;DHT22;34799;51.440;-2.534;2023-07-29T06:07:08;16.80;99.90
48988;DHT22;34799;51.440;-2.534;2023-07-29T06:09:35;16.90;99.90
48988;DHT22;34799;51.440;-2.534;2023-07-29T06:12:02;16.80;99.90
48988;DHT22;34799;51.440;-2.534;2023-07-29T06:14:29;16.70;99.90
48988;DHT22;34799;51.440;-2.534;2023-07-29T06:16:57;16.70;99.90
48988;DHT22;34799;51.440;-2.534;2023-07-29T06:19:24;16.60;99.90
48988;DHT22;34799;51.440;-2.534;2023-07-29T06:21:55;16.60;99.90
48988;DHT22;34799;51.440;-2.534;2023-07-29T06:24:22;16.60;99.90
48988;DHT22;34799;51.440;-2.534;2023-07-29T06:26:49;16.60;99.90
48988;DHT22;34799;51.440;-2.534;2023-07-29T06:29:16;16.60;99.90
48988;DHT22;34799;51.440;-2.534;2023-07-29T06:31:43;16.70;99.90
48988;DHT22;34799;51.440;-2.534;2023-07-29T06:34:10;16.70;99.90
48988;DHT22;34799;51.440;-2.534;2023-07-29T06:36:37;16.70;99.90
48988;DHT22;34799;51.440;-2.534;2023-07-29T06:39:04;16.90;99.90
48988;DHT22;34799;51.440;-2.534;2023-07-29T06:41:32;16.90;99.90
48988;DHT22;34799;51.440;-2.534;2023-07-29T06:44:03;17.00;99.90
48988;DHT22;34799;51.440;-2.534;2023-07-29T06:46:30;17.00;99.90
48988;DHT22;34799;51.440;-2.534;2023-07-29T06:48:57;17.10;99.90
48988;DHT22;34799;51.440;-2.534;2023-07-29T06:51:24;17.20;99.90
48988;DHT22;34799;51.440;-2.534;2023-07-29T06:53:51;17.20;99.90
48988;DHT22;34799;51.440;-2.534;2023-07-29T06:56:19;17.20;99.90
48988;DHT22;34799;51.440;-2.534;2023-07-29T06:58:46;17.20;99.90
48988;DHT22;34799;51.440;-2.534;2023-07-29T07:01:13;18.30;99.90
48988;DHT22;34799;51.440;-2.534;2023-07-29T07:03:40;17.20;99.90
48988;DHT22;34799;51.440;-2.534;2023-07-29T07:06:07;17.20;99.90
48988;DHT22;34799;51.440;-2.534;2023-07-29T07:08:34;17.10;99.90
48988;DHT22;34799;51.440;-2.534;2023-07-29T07:11:01;17.00;99.90
48988;DHT22;34799;51.440;-2.534;2023-07-29T07:13:28;17.00;99.90
48988;DHT22;34799;51.440;-2.534;2023-07-29T07:15:55;16.90;99.90
48988;DHT22;34799;51.440;-2.534;2023-07-29T07:18:23;16.90;99.90
48988;DHT22;34799;51.440;-2.534;2023-07-29T07:20:50;16.90;99.90
48988;DHT22;34799;51.440;-2.534;2023-07-29T07:23:18;16.90;99.90
48988;DHT22;34799;51.440;-2.534;2023-07-29T07:25:45;17.00;99.90
48988;DHT22;34799;51.440;-2.534;2023-07-29T07:28:12;17.00;99.90
48988;DHT22;34799;51.440;-2.534;2023-07-29T07:30:40;17.00;99.90
48988;DHT22;34799;51.440;-2.534;2023-07-29T07:33:08;17.00;99.90
48988;DHT22;34799;51.440;-2.534;2023-07-29T07:35:35;17.10;99.90
48988;DHT22;34799;51.440;-2.534;2023-07-29T07:38:02;17.20;99.90
48988;DHT22;34799;51.440;-2.534;2023-07-29T07:40:31;17.30;99.90
48988;DHT22;34799;51.440;-2.534;2023-07-29T07:42:58;17.40;99.90
48988;DHT22;34799;51.440;-2.534;2023-07-29T07:45:25;17.50;99.90
48988;DHT22;34799;51.440;-2.534;2023-07-29T07:47:53;17.60;99.90
48988;DHT22;34799;51.440;-2.534;2023-07-29T07:50:24;17.70;99.90
48988;DHT22;34799;51.440;-2.534;2023-07-29T07:52:51;17.80;99.90
48988;DHT22;34799;51.440;-2.534;2023-07-29T07:55:18;17.90;99.90
48988;DHT22;34799;51.440;-2.534;2023-07-29T07:57:46;17.90;99.90
48988;DHT22;34799;51.440;-2.534;2023-07-29T08:00:14;18.00;99.90
48988;DHT22;34799;51.440;-2.534;2023-07-29T08:02:43;18.00;99.90
48988;DHT22;34799;51.440;-2.534;2023-07-29T08:05:10;18.10;99.90
48988;DHT22;34799;51.440;-2.534;2023-07-29T08:07:37;18.20;99.90
48988;DHT22;34799;51.440;-2.534;2023-07-29T08:10:05;18.30;99.90
48988;DHT22;34799;51.440;-2.534;2023-07-29T08:12:32;18.30;99.90
48988;DHT22;34799;51.440;-2.534;2023-07-29T08:14:59;18.30;99.90
48988;DHT22;34799;51.440;-2.534;2023-07-29T08:17:26;18.30;99.90
48988;DHT22;34799;51.440;-2.534;2023-07-29T08:19:53;18.40;99.90
48988;DHT22;34799;51.440;-2.534;2023-07-29T08:22:20;18.50;99.90
48988;DHT22;34799;51.440;-2.534;2023-07-29T08:24:48;18.70;99.90
48988;DHT22;34799;51.440;-2.534;2023-07-29T08:27:15;18.90;99.90
48988;DHT22;34799;51.440;-2.534;2023-07-29T08:29:42;18.90;99.90
48988;DHT22;34799;51.440;-2.534;2023-07-29T08:32:09;19.00;99.90
48988;DHT22;34799;51.440;-2.534;2023-07-29T08:34:36;18.90;99.90
48988;DHT22;34799;51.440;-2.534;2023-07-29T08:37:03;18.90;99.90
48988;DHT22;34799;51.440;-2.534;2023-07-29T08:39:31;18.90;99.90
48988;DHT22;34799;51.440;-2.534;2023-07-29T08:42:02;18.90;99.90
48988;DHT22;34799;51.440;-2.534;2023-07-29T08:44:43;18.90;99.90
48988;DHT22;34799;51.440;-2.534;2023-07-29T08:47:12;18.90;99.90
48988;DHT22;34799;51.440;-2.534;2023-07-29T08:49:42;18.80;99.90
48988;DHT22;34799;51.440;-2.534;2023-07-29T08:52:11;18.80;99.90
48988;DHT22;34799;51.440;-2.534;2023-07-29T08:54:39;18.80;99.90
48988;DHT22;34799;51.440;-2.534;2023-07-29T08:57:07;18.80;99.90
48988;DHT22;34799;51.440;-2.534;2023-07-29T08:59:37;18.80;99.90
48988;DHT22;34799;51.440;-2.534;2023-07-29T09:02:05;18.80;99.90
48988;DHT22;34799;51.440;-2.534;2023-07-29T09:04:32;18.80;99.90
48988;DHT22;34799;51.440;-2.534;2023-07-29T09:07:00;18.70;99.90
48988;DHT22;34799;51.440;-2.534;2023-07-29T09:09:27;18.70;99.90
48988;DHT22;34799;51.440;-2.534;2023-07-29T09:11:54;18.90;99.90
48988;DHT22;34799;51.440;-2.534;2023-07-29T09:14:21;19.10;99.90
48988;DHT22;34799;51.440;-2.534;2023-07-29T09:16:50;19.20;99.90
48988;DHT22;34799;51.440;-2.534;2023-07-29T09:19:18;19.20;99.90
48988;DHT22;34799;51.440;-2.534;2023-07-29T09:21:46;19.10;99.90
48988;DHT22;34799;51.440;-2.534;2023-07-29T09:24:16;19.00;99.90
48988;DHT22;34799;51.440;-2.534;2023-07-29T09:26:50;19.00;99.90
48988;DHT22;34799;51.440;-2.534;2023-07-29T09:29:22;19.10;99.90
48988;DHT22;34799;51.440;-2.534;2023-07-29T09:31:50;19.20;99.90
48988;DHT22;34799;51.440;-2.534;2023-07-29T09:34:18;19.30;99.90
48988;DHT22;34799;51.440;-2.534;2023-07-29T09:36:45;19.20;99.90
48988;DHT22;34799;51.440;-2.534;2023-07-29T09:39:12;19.20;99.90
48988;DHT22;34799;51.440;-2.534;2023-07-29T09:41:47;19.20;99.90
48988;DHT22;34799;51.440;-2.534;2023-07-29T09:44:16;19.10;99.90
48988;DHT22;34799;51.440;-2.534;2023-07-29T09:46:45;19.10;99.90
48988;DHT22;34799;51.440;-2.534;2023-07-29T09:49:12;19.00;99.90
48988;DHT22;34799;51.440;-2.534;2023-07-29T09:51:40;19.00;99.90
48988;DHT22;34799;51.440;-2.534;2023-07-29T09:54:07;19.10;99.90
48988;DHT22;34799;51.440;-2.534;2023-07-29T09:56:39;19.10;99.90
48988;DHT22;34799;51.440;-2.534;2023-07-29T09:59:10;18.90;99.90
48988;DHT22;34799;51.440;-2.534;2023-07-29T10:01:37;18.90;99.90
48988;DHT22;34799;51.440;-2.534;2023-07-29T10:04:04;18.80;99.90
48988;DHT22;34799;51.440;-2.534;2023-07-29T10:06:34;18.80;99.90
48988;DHT22;34799;51.440;-2.534;2023-07-29T10:09:01;18.90;99.90
48988;DHT22;34799;51.440;-2.534;2023-07-29T10:11:29;18.90;99.90
48988;DHT22;34799;51.440;-2.534;2023-07-29T10:13:57;19.10;99.90
48988;DHT22;34799;51.440;-2.534;2023-07-29T10:16:34;19.20;99.90
48988;DHT22;34799;51.440;-2.534;2023-07-29T10:19:04;19.30;99.90
48988;DHT22;34799;51.440;-2.534;2023-07-29T10:21:33;19.20;99.90
48988;DHT22;34799;51.440;-2.534;2023-07-29T10:24:06;19.10;99.90
48988;DHT22;34799;51.440;-2.534;2023-07-29T10:26:39;19.10;99.90
48988;DHT22;34799;51.440;-2.534;2023-07-29T10:29:11;19.30;99.90
48988;DHT22;34799;51.440;-2.534;2023-07-29T10:31:42;21.00;99.90
48988;DHT22;34799;51.440;-2.534;2023-07-29T10:34:11;19.90;99.90
48988;DHT22;34799;51.440;-2.534;2023-07-29T10:36:39;19.90;99.90
48988;DHT22;34799;51.440;-2.534;2023-07-29T10:39:07;19.80;99.90
48988;DHT22;34799;51.440;-2.534;2023-07-29T10:42:00;19.10;99.90
48988;DHT22;34799;51.440;-2.534;2023-07-29T10:49:44;19.50;99.90
48988;DHT22;34799;51.440;-2.534;2023-07-29T10:52:14;19.40;99.90
48988;DHT22;34799;51.440;-2.534;2023-07-29T10:54:44;19.40;99.90
48988;DHT22;34799;51.440;-2.534;2023-07-29T10:57:15;19.20;99.90
48988;DHT22;34799;51.440;-2.534;2023-07-29T10:59:54;19.20;99.90
48988;DHT22;34799;51.440;-2.534;2023-07-29T11:02:29;19.40;99.90
48988;DHT22;34799;51.440;-2.534;2023-07-29T11:05:04;19.50;99.90
48988;DHT22;34799;51.440;-2.534;2023-07-29T11:07:31;19.60;99.90
48988;DHT22;34799;51.440;-2.534;2023-07-29T11:10:13;19.70;99.90
48988;DHT22;34799;51.440;-2.534;2023-07-29T11:12:49;19.50;99.90
48988;DHT22;34799;51.440;-2.534;2023-07-29T11:15:28;19.50;99.90
48988;DHT22;34799;51.440;-2.534;2023-07-29T11:18:00;19.60;99.90
48988;DHT22;34799;51.440;-2.534;2023-07-29T11:20:33;19.70;99.90
48988;DHT22;34799;51.440;-2.534;2023-07-29T11:23:01;19.70;99.90
48988;DHT22;34799;51.440;-2.534;2023-07-29T11:25:30;19.50;99.90
48988;DHT22;34799;51.440;-2.534;2023-07-29T11:27:58;19.40;99.90
48988;DHT22;34799;51.440;-2.534;2023-07-29T11:30:28;19.30;99.90
48988;DHT22;34799;51.440;-2.534;2023-07-29T11:32:58;19.40;99.90
48988;DHT22;34799;51.440;-2.534;2023-07-29T11:35:25;19.50;99.90
48988;DHT22;34799;51.440;-2.534;2023-07-29T11:37:54;19.60;99.90
48988;DHT22;34799;51.440;-2.534;2023-07-29T11:40:23;19.80;99.90
48988;DHT22;34799;51.440;-2.534;2023-07-29T11:42:51;19.90;99.90
48988;DHT22;34799;51.440;-2.534;2023-07-29T11:45:22;20.10;99.90
48988;DHT22;34799;51.440;-2.534;2023-07-29T11:47:51;20.20;99.90
48988;DHT22;34799;51.440;-2.534;2023-07-29T11:50:18;20.10;99.90
48988;DHT22;34799;51.440;-2.534;2023-07-29T11:52:46;20.00;99.90
48988;DHT22;34799;51.440;-2.534;2023-07-29T11:55:14;19.90;99.90
48988;DHT22;34799;51.440;-2.534;2023-07-29T11:57:42;19.90;99.90
48988;DHT22;34799;51.440;-2.534;2023-07-29T12:00:10;19.90;99.90
48988;DHT22;34799;51.440;-2.534;2023-07-29T12:02:41;19.90;99.90
48988;DHT22;34799;51.440;-2.534;2023-07-29T12:05:12;20.10;99.90
48988;DHT22;34799;51.440;-2.534;2023-07-29T12:07:42;20.30;99.90
48988;DHT22;34799;51.440;-2.534;2023-07-29T12:10:09;20.40;99.90
48988;DHT22;34799;51.440;-2.534;2023-07-29T12:12:47;20.50;99.90
48988;DHT22;34799;51.440;-2.534;2023-07-29T12:15:27;20.60;99.90
48988;DHT22;34799;51.440;-2.534;2023-07-29T12:17:55;20.60;99.90
48988;DHT22;34799;51.440;-2.534;2023-07-29T12:20:24;20.60;99.90
48988;DHT22;34799;51.440;-2.534;2023-07-29T12:22:59;20.80;99.90
48988;DHT22;34799;51.440;-2.534;2023-07-29T12:25:29;21.00;99.90
48988;DHT22;34799;51.440;-2.534;2023-07-29T12:28:01;21.30;99.90
48988;DHT22;34799;51.440;-2.534;2023-07-29T12:30:29;21.30;99.90
48988;DHT22;34799;51.440;-2.534;2023-07-29T12:32:56;21.40;99.90
48988;DHT22;34799;51.440;-2.534;2023-07-29T12:35:25;21.20;99.90
48988;DHT22;34799;51.440;-2.534;2023-07-29T12:38:00;21.20;99.90
48988;DHT22;34799;51.440;-2.534;2023-07-29T12:40:28;21.30;99.90
48988;DHT22;34799;51.440;-2.534;2023-07-29T12:42:56;21.40;99.90
48988;DHT22;34799;51.440;-2.534;2023-07-29T12:45:23;21.60;99.90
48988;DHT22;34799;51.440;-2.534;2023-07-29T12:47:55;21.80;99.90
48988;DHT22;34799;51.440;-2.534;2023-07-29T12:50:22;21.00;99.90
48988;DHT22;34799;51.440;-2.534;2023-07-29T12:52:49;21.60;99.90
48988;DHT22;34799;51.440;-2.534;2023-07-29T12:55:16;21.50;99.90
48988;DHT22;34799;51.440;-2.534;2023-07-29T12:57:44;21.50;99.90
48988;DHT22;34799;51.440;-2.534;2023-07-29T13:00:12;21.50;99.90
48988;DHT22;34799;51.440;-2.534;2023-07-29T13:02:39;21.40;99.90
48988;DHT22;34799;51.440;-2.534;2023-07-29T13:05:10;21.40;99.90
48988;DHT22;34799;51.440;-2.534;2023-07-29T13:07:42;21.40;99.90
48988;DHT22;34799;51.440;-2.534;2023-07-29T13:10:10;21.40;99.90
48988;DHT22;34799;51.440;-2.534;2023-07-29T13:12:37;21.40;99.90
48988;DHT22;34799;51.440;-2.534;2023-07-29T13:15:05;21.50;99.90
48988;DHT22;34799;51.440;-2.534;2023-07-29T13:17:33;21.80;99.90
48988;DHT22;34799;51.440;-2.534;2023-07-29T13:20:01;22.00;99.90
48988;DHT22;34799;51.440;-2.534;2023-07-29T13:22:29;22.20;99.90
48988;DHT22;34799;51.440;-2.534;2023-07-29T13:24:57;21.80;99.90
48988;DHT22;34799;51.440;-2.534;2023-07-29T13:27:26;21.40;99.90
48988;DHT22;34799;51.440;-2.534;2023-07-29T13:29:53;20.90;99.90
48988;DHT22;34799;51.440;-2.534;2023-07-29T13:32:21;20.60;99.90
48988;DHT22;34799;51.440;-2.534;2023-07-29T13:34:48;20.40;99.90
48988;DHT22;34799;51.440;-2.534;2023-07-29T13:37:16;20.10;99.90
48988;DHT22;34799;51.440;-2.534;2023-07-29T13:39:43;20.00;99.90
48988;DHT22;34799;51.440;-2.534;2023-07-29T13:42:10;20.10;99.90
48988;DHT22;34799;51.440;-2.534;2023-07-29T13:44:37;20.30;99.90
48988;DHT22;34799;51.440;-2.534;2023-07-29T13:47:05;20.40;99.90
48988;DHT22;34799;51.440;-2.534;2023-07-29T13:49:33;20.40;99.90
48988;DHT22;34799;51.440;-2.534;2023-07-29T13:52:00;20.30;99.90
48988;DHT22;34799;51.440;-2.534;2023-07-29T13:54:27;20.30;99.90
48988;DHT22;34799;51.440;-2.534;2023-07-29T13:56:55;20.50;99.90
48988;DHT22;34799;51.440;-2.534;2023-07-29T13:59:22;20.80;99.90
48988;DHT22;34799;51.440;-2.534;2023-07-29T14:01:49;21.10;99.90
48988;DHT22;34799;51.440;-2.534;2023-07-29T14:04:16;21.20;99.90
48988;DHT22;34799;51.440;-2.534;2023-07-29T14:06:44;21.10;99.90
48988;DHT22;34799;51.440;-2.534;2023-07-29T14:09:13;21.00;99.90
48988;DHT22;34799;51.440;-2.534;2023-07-29T14:11:40;20.70;99.90
48988;DHT22;34799;51.440;-2.534;2023-07-29T14:14:07;20.80;99.90
48988;DHT22;34799;51.440;-2.534;2023-07-29T14:16:34;20.90;99.90
48988;DHT22;34799;51.440;-2.534;2023-07-29T14:19:02;21.00;99.90
48988;DHT22;34799;51.440;-2.534;2023-07-29T14:21:29;21.30;99.90
48988;DHT22;34799;51.440;-2.534;2023-07-29T14:23:56;21.50;99.90
48988;DHT22;34799;51.440;-2.534;2023-07-29T14:26:23;21.60;99.90
48988;DHT22;34799;51.440;-2.534;2023-07-29T14:28:50;21.50;99.90
48988;DHT22;34799;51.440;-2.534;2023-07-29T14:31:17;21.40;99.90
48988;DHT22;34799;51.440;-2.534;2023-07-29T14:33:44;21.40;99.90
48988;DHT22;34799;51.440;-2.534;2023-07-29T14:36:12;21.30;99.90
48988;DHT22;34799;51.440;-2.534;2023-07-29T14:38:39;21.50;99.90
48988;DHT22;34799;51.440;-2.534;2023-07-29T14:41:07;21.60;99.90
48988;DHT22;34799;51.440;-2.534;2023-07-29T14:43:35;21.80;99.90
48988;DHT22;34799;51.440;-2.534;2023-07-29T14:46:02;21.70;99.90
48988;DHT22;34799;51.440;-2.534;2023-07-29T14:48:29;21.70;99.90
48988;DHT22;34799;51.440;-2.534;2023-07-29T14:50:56;21.80;99.90
48988;DHT22;34799;51.440;-2.534;2023-07-29T14:53:24;21.70;99.90
48988;DHT22;34799;51.440;-2.534;2023-07-29T14:55:52;21.40;99.90
48988;DHT22;34799;51.440;-2.534;2023-07-29T14:58:19;21.40;99.90
48988;DHT22;34799;51.440;-2.534;2023-07-29T15:00:46;21.30;99.90
48988;DHT22;34799;51.440;-2.534;2023-07-29T15:03:13;21.30;99.90
48988;DHT22;34799;51.440;-2.534;2023-07-29T15:05:40;21.40;99.90
48988;DHT22;34799;51.440;-2.534;2023-07-29T15:08:07;21.30;99.90
48988;DHT22;34799;51.440;-2.534;2023-07-29T15:10:35;21.20;99.90
48988;DHT22;34799;51.440;-2.534;2023-07-29T15:13:02;21.30;99.90
48988;DHT22;34799;51.440;-2.534;2023-07-29T15:15:30;21.30;99.90
48988;DHT22;34799;51.440;-2.534;2023-07-29T15:17:57;21.60;99.90
48988;DHT22;34799;51.440;-2.534;2023-07-29T15:20:24;21.90;99.90
48988;DHT22;34799;51.440;-2.534;2023-07-29T15:22:51;21.80;99.90
48988;DHT22;34799;51.440;-2.534;2023-07-29T15:25:18;21.60;99.90
48988;DHT22;34799;51.440;-2.534;2023-07-29T15:27:46;21.70;99.90
48988;DHT22;34799;51.440;-2.534;2023-07-29T15:30:14;21.80;99.90
48988;DHT22;34799;51.440;-2.534;2023-07-29T15:32:41;22.00;99.90
48988;DHT22;34799;51.440;-2.534;2023-07-29T15:35:09;22.20;99.90
48988;DHT22;34799;51.440;-2.534;2023-07-29T15:37:36;21.90;99.90
48988;DHT22;34799;51.440;-2.534;2023-07-29T15:40:04;21.90;99.90
48988;DHT22;34799;51.440;-2.534;2023-07-29T15:42:31;21.80;99.90
48988;DHT22;34799;51.440;-2.534;2023-07-29T15:44:58;21.70;99.90
48988;DHT22;34799;51.440;-2.534;2023-07-29T15:47:26;21.70;99.90